Time;durP1;ratioP1;P1;durP2;ratioP2;P2;SDS_P1;SDS_P2;PMS_P1;PMS_P2;Temp;Humidity;BMP_temperature;BMP_pressure;BME280_temperature;BME280_humidity;BME280_pressure;Samples;Min_cycle;Max_cycle;Signal;HPM_P1;HPM_P2
2021/11/28 00:01:03;;;;;;;0.28;0.28;;;;;;;;;;5110260;28;20475;-68
2021/11/28 00:03:29;;;;;;;0.47;0.28;;;;;;;;;;5109188;28;20387;-68
2021/11/28 00:05:59;;;;;;;0.95;0.28;;;;;;;;;;5108695;28;20028;-67
2021/11/28 00:08:40;;;;;;;0.40;0.30;;;;;;;;;;5109042;28;20100;-68
2021/11/28 00:11:23;;;;;;;1.20;0.50;;;;;;;;;;5093513;28;20103;-69
2021/11/28 00:13:53;;;;;;;0.73;0.40;;;;;;;;;;5110837;28;20092;-69
2021/11/28 00:16:19;;;;;;;0.85;0.30;;;;;;;;;;5111301;28;20027;-67
2021/11/28 00:18:45;;;;;;;1.10;0.43;;;;;;;;;;5108326;28;20027;-67
2021/11/28 00:21:12;;;;;;;0.22;0.10;;;;;;;;;;5110121;28;20391;-67
2021/11/28 00:23:38;;;;;;;0.73;0.10;;;;;;;;;;5108863;28;20034;-67
2021/11/28 00:26:04;;;;;;;0.30;0.20;;;;;;;;;;5108898;28;20608;-69
2021/11/28 00:28:30;;;;;;;0.38;0.20;;;;;;;;;;5111778;28;20040;-69
2021/11/28 00:30:56;;;;;;;0.32;0.13;;;;;;;;;;5108228;28;20058;-69
2021/11/28 00:33:22;;;;;;;0.13;0.13;;;;;;;;;;5108336;28;20047;-69
2021/11/28 00:35:48;;;;;;;0.25;0.15;;;;;;;;;;5108686;28;20407;-68
2021/11/28 00:38:14;;;;;;;0.00;0.00;;;;;;;;;;5108706;28;20060;-69
2021/11/28 00:40:40;;;;;;;0.20;0.10;;;;;;;;;;5110787;28;20065;-69
2021/11/28 00:43:06;;;;;;;0.00;0.00;;;;;;;;;;5113600;28;20517;-68
2021/11/28 00:45:32;;;;;;;0.40;0.00;;;;;;;;;;5112469;28;20063;-68
2021/11/28 00:48:00;;;;;;;0.10;0.00;;;;;;;;;;5112780;28;20077;-66
2021/11/28 00:50:37;;;;;;;4.63;0.25;;;;;;;;;;5113037;28;20147;-68
2021/11/28 00:53:03;;;;;;;0.00;0.00;;;;;;;;;;5096364;28;20378;-66
2021/11/28 00:55:29;;;;;;;0.65;0.22;;;;;;;;;;5116368;28;20509;-68
2021/11/28 00:57:55;;;;;;;0.10;0.10;;;;;;;;;;5111573;28;20035;-67
2021/11/28 01:00:21;;;;;;;0.10;0.10;;;;;;;;;;5112465;28;20038;-67
2021/11/28 01:02:47;;;;;;;0.20;0.10;;;;;;;;;;5112571;28;20550;-67
2021/11/28 01:05:13;;;;;;;0.77;0.25;;;;;;;;;;5112389;28;20137;-67
2021/11/28 01:07:39;;;;;;;0.10;0.10;;;;;;;;;;5114104;28;20372;-67
2021/11/28 01:10:07;;;;;;;0.55;0.10;;;;;;;;;;5113513;28;20471;-67
2021/11/28 01:12:33;;;;;;;0.10;0.10;;;;;;;;;;5112308;28;20032;-67
2021/11/28 01:14:59;;;;;;;0.10;0.10;;;;;;;;;;5112322;28;20026;-68
2021/11/28 01:17:26;;;;;;;0.05;0.05;;;;;;;;;;5111739;28;20519;-68
2021/11/28 01:19:52;;;;;;;0.30;0.10;;;;;;;;;;5113866;28;20036;-68
2021/11/28 01:22:19;;;;;;;0.30;0.25;;;;;;;;;;5114285;28;20031;-68
2021/11/28 01:24:45;;;;;;;0.05;0.05;;;;;;;;;;5112114;27;20055;-68
2021/11/28 01:27:13;;;;;;;0.47;0.13;;;;;;;;;;5112937;28;20396;-68
2021/11/28 01:29:39;;;;;;;0.20;0.10;;;;;;;;;;5111857;27;20058;-67
2021/11/28 01:32:05;;;;;;;1.00;0.25;;;;;;;;;;5110620;28;20077;-67
2021/11/28 01:34:31;;;;;;;0.20;0.10;;;;;;;;;;5115644;28;20050;-68
2021/11/28 01:36:58;;;;;;;0.00;0.00;;;;;;;;;;5111886;28;20499;-67
2021/11/28 01:39:24;;;;;;;1.17;0.20;;;;;;;;;;5112862;28;20110;-67
2021/11/28 01:41:51;;;;;;;0.00;0.00;;;;;;;;;;5111222;28;20119;-67
2021/11/28 01:44:17;;;;;;;0.52;0.20;;;;;;;;;;5111907;28;20065;-68
2021/11/28 01:46:43;;;;;;;0.00;0.00;;;;;;;;;;5113684;28;20492;-68
2021/11/28 01:49:10;;;;;;;0.28;0.10;;;;;;;;;;5112954;28;20495;-68
2021/11/28 01:51:38;;;;;;;0.22;0.20;;;;;;;;;;5111080;28;20023;-67
2021/11/28 01:54:10;;;;;;;2.05;0.10;;;;;;;;;;5110348;28;20031;-68
2021/11/28 01:56:37;;;;;;;0.28;0.22;;;;;;;;;;5111690;28;20027;-68
2021/11/28 01:59:03;;;;;;;1.30;0.20;;;;;;;;;;5111620;28;20113;-68
2021/11/28 02:01:29;;;;;;;0.35;0.20;;;;;;;;;;5115102;28;20089;-68
2021/11/28 02:03:55;;;;;;;0.30;0.20;;;;;;;;;;5112917;28;20035;-67
2021/11/28 02:06:21;;;;;;;0.25;0.13;;;;;;;;;;5111162;28;20074;-67
2021/11/28 02:08:48;;;;;;;0.30;0.10;;;;;;;;;;5111222;28;20032;-67
2021/11/28 02:11:14;;;;;;;0.17;0.10;;;;;;;;;;5111339;28;20039;-68
2021/11/28 02:13:41;;;;;;;0.35;0.30;;;;;;;;;;5111767;28;20018;-67
2021/11/28 02:16:08;;;;;;;0.20;0.20;;;;;;;;;;5112283;28;20024;-67
2021/11/28 02:18:34;;;;;;;0.20;0.20;;;;;;;;;;5112606;28;20032;-67
2021/11/28 02:21:02;;;;;;;0.10;0.10;;;;;;;;;;5110845;28;20470;-67
2021/11/28 02:23:28;;;;;;;1.27;0.35;;;;;;;;;;5109632;28;20398;-67
2021/11/28 02:25:59;;;;;;;0.30;0.20;;;;;;;;;;5111457;28;20093;-67
2021/11/28 02:28:25;;;;;;;0.50;0.30;;;;;;;;;;5112730;28;20043;-67
2021/11/28 02:30:51;;;;;;;0.28;0.20;;;;;;;;;;5110802;28;20043;-67
2021/11/28 02:33:17;;;;;;;0.10;0.10;;;;;;;;;;5110566;28;20428;-67
2021/11/28 02:35:43;;;;;;;0.28;0.28;;;;;;;;;;5110786;28;20022;-67
2021/11/28 02:38:09;;;;;;;0.20;0.20;;;;;;;;;;5110189;28;20445;-67
2021/11/28 02:40:37;;;;;;;0.93;0.28;;;;;;;;;;5113734;28;20027;-67
2021/11/28 02:43:03;;;;;;;0.32;0.28;;;;;;;;;;5111614;28;20450;-67
2021/11/28 02:45:30;;;;;;;0.40;0.20;;;;;;;;;;5110614;28;20027;-67
2021/11/28 02:47:58;;;;;;;0.95;0.50;;;;;;;;;;5110169;28;20115;-67
2021/11/28 02:50:24;;;;;;;2.30;0.40;;;;;;;;;;5110217;28;20397;-67
2021/11/28 02:52:54;;;;;;;0.73;0.30;;;;;;;;;;5112222;28;20024;-68
2021/11/28 02:55:22;;;;;;;0.52;0.25;;;;;;;;;;5112855;28;20535;-67
2021/11/28 02:57:48;;;;;;;0.73;0.47;;;;;;;;;;5111918;28;20031;-67
2021/11/28 03:00:14;;;;;;;0.70;0.40;;;;;;;;;;5109718;28;20035;-67
2021/11/28 03:02:40;;;;;;;0.70;0.40;;;;;;;;;;5110325;28;20118;-67
2021/11/28 03:05:07;;;;;;;1.98;0.50;;;;;;;;;;5109972;28;20078;-67
2021/11/28 03:07:33;;;;;;;1.05;0.57;;;;;;;;;;5111656;28;20071;-67
2021/11/28 03:09:59;;;;;;;0.85;0.50;;;;;;;;;;5109906;28;20479;-67
2021/11/28 03:12:25;;;;;;;1.02;0.45;;;;;;;;;;5110206;28;20135;-67
2021/11/28 03:14:51;;;;;;;0.70;0.50;;;;;;;;;;5109982;28;20046;-67
2021/11/28 03:17:17;;;;;;;1.58;0.70;;;;;;;;;;5109749;28;20039;-67
2021/11/28 03:19:43;;;;;;;0.68;0.40;;;;;;;;;;5111986;28;20028;-67
2021/11/28 03:22:09;;;;;;;1.13;0.30;;;;;;;;;;5111031;28;20032;-67
2021/11/28 03:24:35;;;;;;;4.50;0.50;;;;;;;;;;5111077;28;20028;-67
2021/11/28 03:27:01;;;;;;;1.02;0.43;;;;;;;;;;5109991;28;20104;-68
2021/11/28 03:29:27;;;;;;;0.65;0.50;;;;;;;;;;5108221;28;20027;-67
2021/11/28 03:31:55;;;;;;;0.77;0.50;;;;;;;;;;5111000;28;20075;-67
2021/11/28 03:34:21;;;;;;;1.13;0.50;;;;;;;;;;5111903;28;20031;-67
2021/11/28 03:36:49;;;;;;;0.35;0.30;;;;;;;;;;5110817;28;20023;-67
2021/11/28 03:39:16;;;;;;;0.35;0.30;;;;;;;;;;5109211;28;20113;-67
2021/11/28 03:41:43;;;;;;;0.80;0.50;;;;;;;;;;5109237;28;20019;-66
2021/11/28 03:44:10;;;;;;;0.30;0.30;;;;;;;;;;5109206;28;20032;-66
2021/11/28 03:46:36;;;;;;;0.95;0.40;;;;;;;;;;5111312;28;20024;-66
2021/11/28 03:49:04;;;;;;;0.50;0.30;;;;;;;;;;5109832;28;20391;-66
2021/11/28 03:51:30;;;;;;;0.52;0.40;;;;;;;;;;5108819;28;20031;-66
2021/11/28 03:53:56;;;;;;;0.40;0.40;;;;;;;;;;5109286;28;20027;-66
2021/11/28 03:56:23;;;;;;;0.73;0.40;;;;;;;;;;5109100;28;20024;-66
2021/11/28 03:58:49;;;;;;;0.45;0.35;;;;;;;;;;5111159;28;20023;-66
2021/11/28 04:01:16;;;;;;;1.60;0.43;;;;;;;;;;5110960;28;20038;-66
2021/11/28 04:03:42;;;;;;;1.00;0.30;;;;;;;;;;5109686;28;20031;-66
2021/11/28 04:06:08;;;;;;;0.85;0.32;;;;;;;;;;5108973;28;20031;-66
2021/11/28 04:08:35;;;;;;;0.70;0.45;;;;;;;;;;5109051;28;20119;-66
2021/11/28 04:11:01;;;;;;;0.55;0.40;;;;;;;;;;5092983;28;20027;-66
2021/11/28 04:13:27;;;;;;;0.40;0.38;;;;;;;;;;5112128;28;20382;-66
2021/11/28 04:15:53;;;;;;;0.98;0.60;;;;;;;;;;5107918;28;20377;-66
2021/11/28 04:18:19;;;;;;;1.33;0.57;;;;;;;;;;5109062;28;20055;-66
2021/11/28 04:20:46;;;;;;;1.08;0.50;;;;;;;;;;5108747;28;20416;-66
2021/11/28 04:23:13;;;;;;;0.60;0.28;;;;;;;;;;5108425;28;20024;-66
2021/11/28 04:25:39;;;;;;;1.13;0.30;;;;;;;;;;5110711;28;20043;-66
2021/11/28 04:28:05;;;;;;;0.77;0.43;;;;;;;;;;5111210;28;20047;-66
2021/11/28 04:30:31;;;;;;;0.55;0.47;;;;;;;;;;5108868;28;20023;-66
2021/11/28 04:32:57;;;;;;;0.65;0.40;;;;;;;;;;5107066;28;20043;-66
2021/11/28 04:35:23;;;;;;;1.67;0.47;;;;;;;;;;5108650;28;20479;-67
2021/11/28 04:37:50;;;;;;;0.68;0.50;;;;;;;;;;5110662;28;20038;-66
2021/11/28 04:40:16;;;;;;;0.80;0.63;;;;;;;;;;5110256;28;20023;-66
2021/11/28 04:42:42;;;;;;;0.73;0.60;;;;;;;;;;5109629;28;20028;-67
2021/11/28 04:45:09;;;;;;;1.15;0.50;;;;;;;;;;5108562;28;20080;-67
2021/11/28 04:47:35;;;;;;;0.77;0.55;;;;;;;;;;5108604;28;20491;-66
2021/11/28 04:50:01;;;;;;;0.63;0.38;;;;;;;;;;5092646;28;20023;-66
2021/11/28 04:52:27;;;;;;;0.88;0.50;;;;;;;;;;5111683;28;20615;-66
2021/11/28 04:54:53;;;;;;;0.80;0.50;;;;;;;;;;5109411;28;20030;-66
2021/11/28 04:57:19;;;;;;;0.50;0.45;;;;;;;;;;5108415;28;20026;-66
2021/11/28 04:59:46;;;;;;;0.98;0.50;;;;;;;;;;5108294;28;20024;-66
2021/11/28 05:02:13;;;;;;;0.77;0.50;;;;;;;;;;5108240;28;20020;-66
2021/11/28 05:04:39;;;;;;;1.00;0.60;;;;;;;;;;5110724;28;20032;-67
2021/11/28 05:07:05;;;;;;;0.88;0.50;;;;;;;;;;5108778;28;20044;-66
2021/11/28 05:09:31;;;;;;;0.50;0.50;;;;;;;;;;5108376;28;20028;-66
2021/11/28 05:11:57;;;;;;;1.45;0.47;;;;;;;;;;5108276;28;20024;-67
2021/11/28 05:14:23;;;;;;;1.95;0.52;;;;;;;;;;5108466;28;20054;-67
2021/11/28 05:16:49;;;;;;;0.82;0.50;;;;;;;;;;5109933;28;20039;-66
2021/11/28 05:19:16;;;;;;;0.80;0.50;;;;;;;;;;5109917;28;20027;-66
2021/11/28 05:21:42;;;;;;;1.88;0.47;;;;;;;;;;5109325;28;20468;-66
2021/11/28 05:24:08;;;;;;;1.50;0.50;;;;;;;;;;5108219;28;20027;-66
2021/11/28 05:26:34;;;;;;;0.60;0.40;;;;;;;;;;5107963;28;20016;-66
2021/11/28 05:29:00;;;;;;;1.63;0.60;;;;;;;;;;5110352;28;20028;-66
2021/11/28 05:31:26;;;;;;;1.35;0.50;;;;;;;;;;5115061;28;20092;-66
2021/11/28 05:33:53;;;;;;;0.35;0.30;;;;;;;;;;5111321;28;20506;-67
2021/11/28 05:36:19;;;;;;;1.15;0.50;;;;;;;;;;5112008;28;20120;-66
2021/11/28 05:38:45;;;;;;;0.95;0.30;;;;;;;;;;5111668;28;20049;-67
2021/11/28 05:41:11;;;;;;;1.55;0.43;;;;;;;;;;5112850;28;20019;-67
2021/11/28 05:43:40;;;;;;;0.73;0.38;;;;;;;;;;5114599;28;20424;-66
2021/11/28 05:46:06;;;;;;;0.40;0.40;;;;;;;;;;5114194;28;20375;-66
2021/11/28 05:48:33;;;;;;;1.70;0.40;;;;;;;;;;5111715;28;20040;-66
2021/11/28 05:50:59;;;;;;;0.70;0.60;;;;;;;;;;5111691;28;20032;-66
2021/11/28 05:53:26;;;;;;;0.47;0.38;;;;;;;;;;5111381;28;20077;-66
2021/11/28 05:55:52;;;;;;;0.80;0.60;;;;;;;;;;5111588;28;20032;-68
2021/11/28 05:58:18;;;;;;;1.13;0.60;;;;;;;;;;5113447;28;20059;-68
2021/11/28 06:00:44;;;;;;;1.05;0.60;;;;;;;;;;5112581;28;20042;-68
2021/11/28 06:03:11;;;;;;;1.27;0.63;;;;;;;;;;5111672;28;20467;-67
2021/11/28 06:05:38;;;;;;;0.57;0.55;;;;;;;;;;5111471;28;20019;-67
2021/11/28 06:08:04;;;;;;;1.08;0.80;;;;;;;;;;5110692;28;20474;-68
2021/11/28 06:10:30;;;;;;;1.27;0.73;;;;;;;;;;5115006;28;20087;-68
2021/11/28 06:12:56;;;;;;;0.50;0.45;;;;;;;;;;5112465;28;20115;-68
2021/11/28 06:15:22;;;;;;;1.55;0.60;;;;;;;;;;5111017;28;20062;-68
2021/11/28 06:17:48;;;;;;;2.65;0.90;;;;;;;;;;5111247;28;20027;-68
2021/11/28 06:20:14;;;;;;;3.70;0.98;;;;;;;;;;5112046;28;20508;-68
2021/11/28 06:22:40;;;;;;;1.42;0.65;;;;;;;;;;5113274;28;20020;-68
2021/11/28 06:25:06;;;;;;;0.80;0.50;;;;;;;;;;5112268;28;20097;-68
2021/11/28 06:27:32;;;;;;;0.60;0.38;;;;;;;;;;5111036;28;20566;-68
2021/11/28 06:29:58;;;;;;;1.13;0.70;;;;;;;;;;5110484;28;20430;-68
2021/11/28 06:32:24;;;;;;;3.72;0.55;;;;;;;;;;5110551;28;20056;-66
2021/11/28 06:34:50;;;;;;;0.90;0.60;;;;;;;;;;5112539;28;20031;-63
2021/11/28 06:37:16;;;;;;;0.40;0.40;;;;;;;;;;5112348;28;20023;-63
2021/11/28 06:39:42;;;;;;;2.00;0.50;;;;;;;;;;5111594;28;20032;-64
2021/11/28 06:42:08;;;;;;;1.35;0.50;;;;;;;;;;5110872;28;20119;-63
2021/11/28 06:44:34;;;;;;;0.80;0.40;;;;;;;;;;5109790;28;20475;-64
2021/11/28 06:47:00;;;;;;;0.70;0.30;;;;;;;;;;5094503;28;20141;-66
2021/11/28 06:49:27;;;;;;;0.50;0.40;;;;;;;;;;5113782;28;20050;-65
2021/11/28 06:51:54;;;;;;;0.75;0.55;;;;;;;;;;5111764;28;20046;-66
2021/11/28 06:54:20;;;;;;;0.30;0.30;;;;;;;;;;5110160;28;20028;-64
2021/11/28 06:56:46;;;;;;;0.75;0.30;;;;;;;;;;5110256;28;20471;-64
2021/11/28 06:59:12;;;;;;;0.88;0.40;;;;;;;;;;5106593;28;20028;-65
2021/11/28 07:01:38;;;;;;;0.82;0.45;;;;;;;;;;5106721;28;20069;-65
2021/11/28 07:04:04;;;;;;;0.73;0.40;;;;;;;;;;5112043;28;20031;-65
2021/11/28 07:06:30;;;;;;;1.58;0.60;;;;;;;;;;5109820;28;20024;-66
2021/11/28 07:08:56;;;;;;;3.35;0.63;;;;;;;;;;5110156;28;20046;-65
2021/11/28 07:11:22;;;;;;;1.48;0.85;;;;;;;;;;5110127;28;20032;-65
2021/11/28 07:13:50;;;;;;;0.68;0.45;;;;;;;;;;5111530;28;20032;-62
2021/11/28 07:16:16;;;;;;;0.77;0.55;;;;;;;;;;5109487;28;20095;-64
2021/11/28 07:18:44;;;;;;;0.52;0.32;;;;;;;;;;5108312;28;20023;-63
2021/11/28 07:21:10;;;;;;;0.88;0.60;;;;;;;;;;5108303;28;20050;-66
2021/11/28 07:23:37;;;;;;;1.65;0.80;;;;;;;;;;5108420;28;20023;-64
2021/11/28 07:26:04;;;;;;;1.80;1.23;;;;;;;;;;5108214;28;20106;-66
2021/11/28 07:28:30;;;;;;;2.55;1.40;;;;;;;;;;5111852;28;20027;-67
2021/11/28 07:30:56;;;;;;;2.75;1.08;;;;;;;;;;5093794;27;20035;-67
2021/11/28 07:33:22;;;;;;;2.75;1.23;;;;;;;;;;5104229;28;20039;-67
2021/11/28 07:35:48;;;;;;;2.63;1.10;;;;;;;;;;5107840;28;20028;-67
2021/11/28 07:38:14;;;;;;;1.45;1.08;;;;;;;;;;5107856;28;20054;-66
2021/11/28 07:40:40;;;;;;;3.35;1.00;;;;;;;;;;5110288;28;20027;-67
2021/11/28 07:43:06;;;;;;;2.13;1.05;;;;;;;;;;5080683;28;20032;-67
2021/11/28 07:45:32;;;;;;;1.58;1.00;;;;;;;;;;5101545;28;20032;-67
2021/11/28 07:47:58;;;;;;;2.20;0.98;;;;;;;;;;5097610;28;20043;-67
2021/11/28 07:50:25;;;;;;;1.95;1.35;;;;;;;;;;5101810;28;20110;-66
2021/11/28 07:52:51;;;;;;;2.67;1.58;;;;;;;;;;5110273;28;20039;-67
2021/11/28 07:55:17;;;;;;;2.60;1.75;;;;;;;;;;5109738;28;20131;-67
2021/11/28 07:57:44;;;;;;;1.85;1.50;;;;;;;;;;5108295;28;20051;-67
2021/11/28 08:00:10;;;;;;;4.78;1.75;;;;;;;;;;5107528;27;20024;-70
2021/11/28 08:02:36;;;;;;;2.53;1.80;;;;;;;;;;5102971;28;20035;-68
2021/11/28 08:05:03;;;;;;;2.83;1.73;;;;;;;;;;5107925;28;20036;-67
2021/11/28 08:07:29;;;;;;;1.90;1.20;;;;;;;;;;5108331;28;20482;-67
2021/11/28 08:09:55;;;;;;;1.33;1.00;;;;;;;;;;5099361;28;20081;-67
2021/11/28 08:12:21;;;;;;;2.60;1.60;;;;;;;;;;5092574;28;20039;-68
2021/11/28 08:14:47;;;;;;;3.35;1.80;;;;;;;;;;5097208;28;20039;-67
2021/11/28 08:17:13;;;;;;;7.50;2.83;;;;;;;;;;5107168;28;20074;-67
2021/11/28 08:19:43;;;;;;;2.00;1.23;;;;;;;;;;5110158;28;20028;-71
2021/11/28 08:22:09;;;;;;;3.00;1.73;;;;;;;;;;5107101;28;20035;-70
2021/11/28 08:24:35;;;;;;;3.03;1.40;;;;;;;;;;5105716;28;20117;-70
2021/11/28 08:27:01;;;;;;;3.03;1.60;;;;;;;;;;5106661;28;20126;-70
2021/11/28 08:29:28;;;;;;;3.97;1.73;;;;;;;;;;5107731;28;20031;-71
2021/11/28 08:31:54;;;;;;;3.83;1.98;;;;;;;;;;5108472;28;20164;-70
2021/11/28 08:34:20;;;;;;;5.65;2.08;;;;;;;;;;5106502;28;20036;-68
2021/11/28 08:36:46;;;;;;;29.67;15.23;;;;;;;;;;5102127;28;20034;-68
2021/11/28 08:39:13;;;;;;;6.68;3.90;;;;;;;;;;5106395;28;20023;-68
2021/11/28 08:41:40;;;;;;;5.13;3.28;;;;;;;;;;5106498;28;20500;-66
2021/11/28 08:44:07;;;;;;;4.13;2.60;;;;;;;;;;5087373;28;20028;-69
2021/11/28 08:46:33;;;;;;;2.88;1.98;;;;;;;;;;5110499;28;20028;-69
2021/11/28 08:48:59;;;;;;;5.35;3.05;;;;;;;;;;5108524;28;20045;-68
2021/11/28 08:51:26;;;;;;;49.40;20.77;;;;;;;;;;5104592;28;20024;-70
2021/11/28 08:53:53;;;;;;;8.20;4.00;;;;;;;;;;5099634;28;20398;-69
2021/11/28 08:56:19;;;;;;;3.50;2.10;;;;;;;;;;5088084;28;20932;-68
2021/11/28 08:58:45;;;;;;;3.15;1.70;;;;;;;;;;5090759;28;20021;-69
2021/11/28 09:01:11;;;;;;;2.58;1.70;;;;;;;;;;5104599;28;20020;-68
2021/11/28 09:03:37;;;;;;;3.35;2.00;;;;;;;;;;5111597;28;20034;-71
2021/11/28 09:06:03;;;;;;;36.70;14.70;;;;;;;;;;5114447;28;20468;-70
2021/11/28 09:08:29;;;;;;;8.35;2.90;;;;;;;;;;5111914;28;20158;-66
2021/11/28 09:10:55;;;;;;;3.38;2.13;;;;;;;;;;5113490;28;20047;-70
2021/11/28 09:13:21;;;;;;;4.57;2.05;;;;;;;;;;5113796;28;20498;-68
2021/11/28 09:15:47;;;;;;;2.67;1.70;;;;;;;;;;5113199;28;20031;-70
2021/11/28 09:18:18;;;;;;;3.75;2.00;;;;;;;;;;5111714;27;20467;-68
2021/11/28 09:20:48;;;;;;;3.33;2.00;;;;;;;;;;5101334;28;20026;-69
2021/11/28 09:25:40;;;;;;;3.42;1.83;;;;;;;;;;5105142;28;20127;-69
2021/11/28 09:28:06;;;;;;;3.22;2.00;;;;;;;;;;5109529;28;20032;-70
2021/11/28 09:30:33;;;;;;;2.80;1.45;;;;;;;;;;5108492;28;20031;-72
2021/11/28 09:33:01;;;;;;;1.60;1.02;;;;;;;;;;5109355;28;20176;-72
2021/11/28 09:35:27;;;;;;;3.35;1.98;;;;;;;;;;5108728;28;20035;-70
2021/11/28 09:37:53;;;;;;;1.90;1.30;;;;;;;;;;5112541;28;20514;-72
2021/11/28 09:40:19;;;;;;;4.55;1.35;;;;;;;;;;5114120;28;20034;-71
2021/11/28 09:42:54;;;;;;;1.88;1.15;;;;;;;;;;5111618;28;20143;-73
2021/11/28 09:45:20;;;;;;;3.15;1.63;;;;;;;;;;5111559;28;20030;-74
2021/11/28 09:47:46;;;;;;;2.40;1.30;;;;;;;;;;5111780;28;20119;-73
2021/11/28 09:50:13;;;;;;;5.05;3.35;;;;;;;;;;5110821;28;20029;-71
2021/11/28 09:52:39;;;;;;;3.70;2.10;;;;;;;;;;5113295;28;20104;-71
2021/11/28 09:55:07;;;;;;;4.93;2.60;;;;;;;;;;5113565;28;20019;-70
2021/11/28 09:57:33;;;;;;;3.70;1.80;;;;;;;;;;5109761;28;20035;-71
2021/11/28 09:59:59;;;;;;;3.17;1.40;;;;;;;;;;5110110;28;20028;-70
2021/11/28 10:02:33;;;;;;;2.55;1.10;;;;;;;;;;5111523;28;20033;-71
2021/11/28 10:05:01;;;;;;;2.28;1.20;;;;;;;;;;5112718;28;20077;-70
2021/11/28 10:07:27;;;;;;;1.45;0.95;;;;;;;;;;5114686;28;20059;-70
2021/11/28 10:09:54;;;;;;;5.22;1.13;;;;;;;;;;5111489;28;20035;-72
2021/11/28 10:12:20;;;;;;;2.53;1.10;;;;;;;;;;5110905;28;20115;-73
2021/11/28 10:14:48;;;;;;;4.53;1.20;;;;;;;;;;5110285;28;20095;-71
2021/11/28 10:17:14;;;;;;;;;;;;;;;;;;5111890;28;20020;-71
2021/11/28 10:19:40;;;;;;;4.40;1.27;;;;;;;;;;5112939;28;20378;-73
2021/11/28 10:22:06;;;;;;;2.90;1.10;;;;;;;;;;5111220;28;20023;-71
2021/11/28 10:24:32;;;;;;;2.22;1.20;;;;;;;;;;5111902;28;20463;-71
2021/11/28 10:27:05;;;;;;;1.25;0.85;;;;;;;;;;5110322;28;20471;-71
2021/11/28 10:29:40;;;;;;;2.88;1.13;;;;;;;;;;5112844;28;20055;-73
2021/11/28 10:32:07;;;;;;;2.40;1.10;;;;;;;;;;5107590;28;20039;-73
2021/11/28 10:34:41;;;;;;;2.55;1.23;;;;;;;;;;5114152;28;20028;-73
2021/11/28 10:37:17;;;;;;;1.95;0.98;;;;;;;;;;5113214;28;20396;-73
2021/11/28 10:39:47;;;;;;;1.75;1.08;;;;;;;;;;5104880;28;20486;-73
2021/11/28 10:42:24;;;;;;;1.75;0.90;;;;;;;;;;5110473;28;20039;-73
2021/11/28 10:44:59;;;;;;;4.45;1.73;;;;;;;;;;5110423;28;20036;-74
2021/11/28 10:47:33;;;;;;;4.38;1.70;;;;;;;;;;5110263;28;20031;-73
2021/11/28 10:50:06;;;;;;;2.80;1.77;;;;;;;;;;5111436;28;20046;-74
2021/11/28 10:52:32;;;;;;;2.35;1.40;;;;;;;;;;5110061;28;20024;-73
2021/11/28 10:54:58;;;;;;;2.17;1.10;;;;;;;;;;5110794;28;20133;-74
2021/11/28 10:57:25;;;;;;;1.90;0.85;;;;;;;;;;5109725;28;20019;-74
2021/11/28 10:59:55;;;;;;;3.45;0.82;;;;;;;;;;5110764;28;20022;-74
2021/11/28 11:02:29;;;;;;;2.75;1.20;;;;;;;;;;5110594;28;20031;-71
2021/11/28 11:04:56;;;;;;;1.98;1.10;;;;;;;;;;5111518;28;20024;-69
2021/11/28 11:07:23;;;;;;;2.60;1.13;;;;;;;;;;5112562;28;20065;-74
2021/11/28 11:09:51;;;;;;;1.95;1.10;;;;;;;;;;5109850;28;20271;-68
2021/11/28 11:12:25;;;;;;;1.33;0.85;;;;;;;;;;5111484;28;20027;-71
2021/11/28 11:14:52;;;;;;;1.80;1.10;;;;;;;;;;5109787;28;20466;-69
2021/11/28 11:17:19;;;;;;;4.22;2.10;;;;;;;;;;5110286;28;20055;-71
2021/11/28 11:19:47;;;;;;;4.32;2.00;;;;;;;;;;5112319;28;20035;-67
2021/11/28 11:22:23;;;;;;;2.70;1.40;;;;;;;;;;5111127;28;20081;-69
2021/11/28 11:24:52;;;;;;;3.38;1.10;;;;;;;;;;5109565;27;20557;-68
2021/11/28 11:27:27;;;;;;;2.95;1.27;;;;;;;;;;5108724;28;20131;-70
2021/11/28 11:29:55;;;;;;;2.28;1.20;;;;;;;;;;5109621;28;20073;-70
2021/11/28 11:32:23;;;;;;;1.38;0.90;;;;;;;;;;5109501;28;20127;-71
2021/11/28 11:34:50;;;;;;;2.15;1.27;;;;;;;;;;5111327;28;20121;-70
2021/11/28 11:37:18;;;;;;;1.80;0.80;;;;;;;;;;5111456;28;20023;-70
2021/11/28 11:39:45;;;;;;;1.92;0.93;;;;;;;;;;5109589;28;20024;-70
2021/11/28 11:42:15;;;;;;;3.03;1.00;;;;;;;;;;5109305;28;20057;-70
2021/11/28 11:44:42;;;;;;;1.33;0.90;;;;;;;;;;5109252;28;20023;-71
2021/11/28 11:47:09;;;;;;;4.85;1.20;;;;;;;;;;5109482;28;20055;-69
2021/11/28 11:49:38;;;;;;;1.38;1.00;;;;;;;;;;5112847;28;20030;-70
2021/11/28 11:52:04;;;;;;;1.83;1.30;;;;;;;;;;5110248;28;20016;-71
2021/11/28 11:54:34;;;;;;;2.60;1.20;;;;;;;;;;5108861;28;20027;-70
2021/11/28 11:57:02;;;;;;;2.03;1.20;;;;;;;;;;5109294;28;20024;-70
2021/11/28 11:59:40;;;;;;;2.40;1.40;;;;;;;;;;5108897;28;20111;-70
2021/11/28 12:02:06;;;;;;;1.83;1.02;;;;;;;;;;5092657;28;20031;-70
2021/11/28 12:04:36;;;;;;;3.30;0.90;;;;;;;;;;5112394;28;20035;-69
2021/11/28 12:07:02;;;;;;;0.95;0.75;;;;;;;;;;5109476;28;20030;-71
2021/11/28 12:09:34;;;;;;;1.45;1.00;;;;;;;;;;5111184;28;20431;-71
2021/11/28 12:12:01;;;;;;;1.63;0.80;;;;;;;;;;5110977;28;20021;-71
2021/11/28 12:14:28;;;;;;;1.30;0.80;;;;;;;;;;5109384;28;20467;-71
2021/11/28 12:16:54;;;;;;;1.33;0.80;;;;;;;;;;5110622;28;20054;-71
2021/11/28 12:19:37;;;;;;;1.77;0.95;;;;;;;;;;5110708;28;20062;-75
2021/11/28 12:22:03;;;;;;;1.85;1.00;;;;;;;;;;5109640;28;20482;-71
2021/11/28 12:24:29;;;;;;;2.33;0.90;;;;;;;;;;5099633;28;20028;-70
2021/11/28 12:26:57;;;;;;;1.85;0.60;;;;;;;;;;5103887;28;20077;-68
2021/11/28 12:29:25;;;;;;;3.33;0.50;;;;;;;;;;5106881;28;20464;-69
2021/11/28 12:31:56;;;;;;;0.65;0.47;;;;;;;;;;5110132;28;20491;-68
2021/11/28 12:34:25;;;;;;;2.40;0.80;;;;;;;;;;5110395;28;20031;-67
2021/11/28 12:36:55;;;;;;;1.63;0.90;;;;;;;;;;5108068;28;20515;-67
2021/11/28 12:39:23;;;;;;;1.58;1.10;;;;;;;;;;5107979;28;20028;-67
2021/11/28 12:41:52;;;;;;;1.40;0.80;;;;;;;;;;5108677;28;20011;-68
2021/11/28 12:44:20;;;;;;;0.80;0.60;;;;;;;;;;5108478;28;20021;-68
2021/11/28 12:46:51;;;;;;;0.98;0.45;;;;;;;;;;5109977;28;20052;-69
2021/11/28 12:49:26;;;;;;;0.70;0.30;;;;;;;;;;5109745;28;20119;-68
2021/11/28 12:51:52;;;;;;;1.55;0.63;;;;;;;;;;5109386;28;20016;-70
2021/11/28 12:54:26;;;;;;;18.50;6.18;;;;;;;;;;5106395;28;20031;-67
2021/11/28 12:57:10;;;;;;;1.08;0.30;;;;;;;;;;5107943;28;20020;-70
2021/11/28 12:59:36;;;;;;;0.82;0.60;;;;;;;;;;5105102;28;20023;-70
2021/11/28 13:02:02;;;;;;;0.63;0.47;;;;;;;;;;5106246;28;20106;-67
2021/11/28 13:04:40;;;;;;;0.65;0.50;;;;;;;;;;5109482;28;20102;-69
2021/11/28 13:07:26;;;;;;;1.15;0.60;;;;;;;;;;5108616;28;20395;-68
2021/11/28 13:09:56;;;;;;;2.20;0.77;;;;;;;;;;5105404;28;20085;-67
2021/11/28 13:12:23;;;;;;;6.43;2.63;;;;;;;;;;5105958;28;20058;-69
2021/11/28 13:14:49;;;;;;;8.18;3.47;;;;;;;;;;5106670;28;20045;-69
2021/11/28 13:17:20;;;;;;;17.60;5.75;;;;;;;;;;5108164;28;20036;-69
2021/11/28 13:19:49;;;;;;;8.75;3.20;;;;;;;;;;5109910;28;20487;-69
2021/11/28 13:22:18;;;;;;;2.63;1.30;;;;;;;;;;5109470;28;20032;-69
2021/11/28 13:24:45;;;;;;;4.78;2.70;;;;;;;;;;5107149;28;20028;-69
2021/11/28 13:27:11;;;;;;;5.05;2.28;;;;;;;;;;5107561;28;20024;-69
2021/11/28 13:29:51;;;;;;;8.18;4.03;;;;;;;;;;5102994;28;20372;-69
2021/11/28 13:32:17;;;;;;;4.93;2.13;;;;;;;;;;5107303;28;20044;-68
2021/11/28 13:34:43;;;;;;;8.40;3.50;;;;;;;;;;5108827;28;20038;-69
2021/11/28 13:37:17;;;;;;;8.52;3.17;;;;;;;;;;5108906;28;20027;-68
2021/11/28 13:39:43;;;;;;;12.65;3.00;;;;;;;;;;5107126;28;20082;-68
2021/11/28 13:42:09;;;;;;;4.75;1.95;;;;;;;;;;5107822;28;20519;-68
2021/11/28 13:44:35;;;;;;;3.63;1.45;;;;;;;;;;5107072;28;20027;-68
2021/11/28 13:47:02;;;;;;;7.20;2.70;;;;;;;;;;5090830;28;20361;-66
2021/11/28 13:49:30;;;;;;;5.00;2.13;;;;;;;;;;5111785;28;20106;-66
2021/11/28 13:51:56;;;;;;;6.28;2.30;;;;;;;;;;5106483;28;20149;-66
2021/11/28 13:54:22;;;;;;;5.10;2.10;;;;;;;;;;5109827;28;20439;-66
2021/11/28 13:56:48;;;;;;;3.22;1.58;;;;;;;;;;5111214;28;20015;-66
2021/11/28 13:59:15;;;;;;;4.25;1.65;;;;;;;;;;5110061;28;20375;-67
2021/11/28 14:01:41;;;;;;;5.30;2.05;;;;;;;;;;5113051;28;20016;-66
2021/11/28 14:04:24;;;;;;;10.23;4.80;;;;;;;;;;5112083;28;20016;-67
2021/11/28 14:06:51;;;;;;;7.63;3.20;;;;;;;;;;5110727;28;20059;-67
2021/11/28 14:09:17;;;;;;;6.07;2.75;;;;;;;;;;5110531;28;20048;-67
2021/11/28 14:11:44;;;;;;;9.48;5.70;;;;;;;;;;5110604;28;20027;-67
2021/11/28 14:14:11;;;;;;;17.63;9.73;;;;;;;;;;5110587;28;20157;-67
2021/11/28 14:16:37;;;;;;;9.48;5.05;;;;;;;;;;5113669;28;20036;-67
2021/11/28 14:19:04;;;;;;;7.32;2.88;;;;;;;;;;5111242;28;20024;-67
2021/11/28 14:21:33;;;;;;;5.85;2.90;;;;;;;;;;5110314;28;20055;-67
2021/11/28 14:23:59;;;;;;;2.10;1.20;;;;;;;;;;5110661;28;20071;-66
2021/11/28 14:26:29;;;;;;;2.35;0.90;;;;;;;;;;5110291;28;20084;-66
2021/11/28 14:28:55;;;;;;;0.13;0.13;;;;;;;;;;5111366;28;20141;-66
2021/11/28 14:31:21;;;;;;;8.02;3.22;;;;;;;;;;5112734;28;20096;-67
2021/11/28 14:33:51;;;;;;;7.75;3.35;;;;;;;;;;5110211;28;20035;-67
2021/11/28 14:36:21;;;;;;;3.58;1.50;;;;;;;;;;5110104;28;20069;-67
2021/11/28 14:38:47;;;;;;;13.23;6.30;;;;;;;;;;5108633;28;20375;-66
2021/11/28 14:41:17;;;;;;;1.40;0.80;;;;;;;;;;5110535;28;20016;-66
2021/11/28 14:43:49;;;;;;;9.85;4.75;;;;;;;;;;5112493;28;20027;-66
2021/11/28 14:46:21;;;;;;;8.00;3.80;;;;;;;;;;5112128;28;20494;-67